createdAt,value
2022-10-29T10:50:32.831Z,60.39
2022-10-29T10:53:19.994Z,60.03
2022-10-29T10:55:57.975Z,61.37
2022-10-29T10:58:31.073Z,61.60
2022-10-29T11:01:05.062Z,62.63
2022-10-29T11:03:43.218Z,61.94
2022-10-29T11:06:35.607Z,61.64
2022-10-29T11:09:16.705Z,61.40
2022-10-29T11:12:26.628Z,59.69
2022-10-29T11:15:26.124Z,61.23
2022-10-29T11:17:56.475Z,61.01
2022-10-29T11:20:27.669Z,60.80
2022-10-29T11:23:01.100Z,60.09
2022-10-29T11:25:57.039Z,59.12
2022-10-29T11:28:40.196Z,58.25
2022-10-29T11:31:20.403Z,58.89
2022-10-29T11:33:56.406Z,58.71
2022-10-29T11:36:27.066Z,59.02
2022-10-29T11:39:01.941Z,58.57
2022-10-29T11:41:57.393Z,57.49
2022-10-29T11:44:25.700Z,57.50
2022-10-29T11:47:30.140Z,56.71
2022-10-29T11:50:09.403Z,55.93
2022-10-29T11:52:48.958Z,56.02
2022-10-29T11:55:49.955Z,55.76
2022-10-29T11:58:41.014Z,56.36
2022-10-29T12:01:20.494Z,55.35
2022-10-29T12:04:24.117Z,53.60
2022-10-29T12:07:13.568Z,53.32
2022-10-29T12:10:05.422Z,52.12
2022-10-29T12:12:42.910Z,53.12
2022-10-29T12:15:36.251Z,53.12
2022-10-29T12:18:11.256Z,53.91
2022-10-29T12:20:49.540Z,54.08
2022-10-29T12:23:29.612Z,52.90
2022-10-29T12:26:38.419Z,52.10
2022-10-29T12:29:19.915Z,51.84
2022-10-29T12:32:00.773Z,51.83
2022-10-29T12:34:45.566Z,51.86
2022-10-29T12:37:21.850Z,52.24
2022-10-29T12:39:55.700Z,51.59
2022-10-29T12:42:25.787Z,51.43
2022-10-29T12:45:11.826Z,51.42
2022-10-29T12:47:54.284Z,51.58
2022-10-29T12:50:30.863Z,51.57
2022-10-29T12:53:18.133Z,51.99
2022-10-29T12:55:46.809Z,51.58
2022-10-29T12:58:53.118Z,51.59
2022-10-29T13:02:09.768Z,51.04
2022-10-29T13:04:34.046Z,51.30
2022-10-29T13:07:02.661Z,51.58
2022-10-29T13:09:36.079Z,51.06
2022-10-29T13:12:11.866Z,51.75
2022-10-29T13:14:45.066Z,50.41
2022-10-29T13:17:39.905Z,50.55
2022-10-29T13:20:27.887Z,50.72
2022-10-29T13:22:57.561Z,50.09
2022-10-29T13:25:33.959Z,50.04
2022-10-29T13:28:21.260Z,50.39
2022-10-29T13:31:03.528Z,50.21
2022-10-29T13:33:30.837Z,50.62
2022-10-29T13:35:59.072Z,49.78
2022-10-29T13:38:35.620Z,50.17
2022-10-29T13:41:09.564Z,50.06
2022-10-29T13:43:36.915Z,50.20
2022-10-29T13:46:31.961Z,50.85
2022-10-29T13:49:03.365Z,51.33
2022-10-29T13:51:44.030Z,50.13
2022-10-29T13:54:19.569Z,49.82
2022-10-29T13:56:57.534Z,48.97
2022-10-29T13:59:38.356Z,49.16
2022-10-29T14:02:20.253Z,49.36
2022-10-29T14:04:52.843Z,49.58
2022-10-29T14:07:26.383Z,49.68
2022-10-29T14:09:58.562Z,49.47
2022-10-29T14:12:31.440Z,49.39
2022-10-29T14:15:10.753Z,49.11
2022-10-29T14:17:41.734Z,48.44
2022-10-29T14:20:29.046Z,49.34
2022-10-29T14:22:56.925Z,49.71
2022-10-29T14:25:24.517Z,49.91
2022-10-29T14:28:10.312Z,49.49
2022-10-29T14:30:37.689Z,48.91
2022-10-29T14:33:25.432Z,49.21
2022-10-29T14:36:01.757Z,49.48
2022-10-29T14:38:41.907Z,48.93
2022-10-29T14:41:10.352Z,48.67
2022-10-29T14:43:39.090Z,48.50
2022-10-29T14:46:27.800Z,47.24
2022-10-29T14:49:00.661Z,47.58
2022-10-29T14:51:31.320Z,47.80
2022-10-29T14:54:02.236Z,47.36
2022-10-29T14:56:34.723Z,47.92
2022-10-29T14:59:10.322Z,47.66
2022-10-29T15:01:46.685Z,47.29
2022-10-29T15:04:24.331Z,47.04
2022-10-29T15:06:55.814Z,46.68
2022-10-29T15:09:28.119Z,47.06
2022-10-29T15:12:01.809Z,47.91
2022-10-29T15:14:47.830Z,48.16
2022-10-29T15:17:22.319Z,48.05
2022-10-29T15:19:55.237Z,48.65
2022-10-29T15:22:41.375Z,48.96
2022-10-29T15:25:20.248Z,48.75
2022-10-29T15:27:49.037Z,48.91
2022-10-29T15:30:22.099Z,49.40
2022-10-29T15:32:49.675Z,49.96
2022-10-29T15:35:21.623Z,50.22
2022-10-29T15:37:51.549Z,50.67
2022-10-29T15:40:22.857Z,50.97
2022-10-29T15:42:50.645Z,51.26
2022-10-29T15:45:21.657Z,51.71
2022-10-29T15:47:55.645Z,52.00
2022-10-29T15:50:40.899Z,52.56
2022-10-29T15:53:16.837Z,52.94
2022-10-29T15:55:45.165Z,53.38
2022-10-29T15:58:16.023Z,53.80
2022-10-29T16:00:43.507Z,54.58
2022-10-29T16:03:20.032Z,54.91
2022-10-29T16:05:51.757Z,55.21
2022-10-29T16:08:39.512Z,56.18
2022-10-29T16:11:12.273Z,56.80
2022-10-29T16:13:39.730Z,57.40
2022-10-29T16:16:13.827Z,57.64
2022-10-29T16:18:41.182Z,58.11
2022-10-29T16:21:08.653Z,58.51
2022-10-29T16:23:38.367Z,59.42
2022-10-29T16:26:05.728Z,60.34
2022-10-29T16:28:33.112Z,60.71
2022-10-29T16:31:00.733Z,62.36
2022-10-29T16:33:28.053Z,63.28
2022-10-29T16:35:58.309Z,63.10
2022-10-29T16:38:25.682Z,63.66
2022-10-29T16:40:53.074Z,64.77
2022-10-29T16:43:20.373Z,65.76
2022-10-29T16:45:48.420Z,65.91
2022-10-29T16:48:15.746Z,66.04
2022-10-29T16:50:44.143Z,66.12
2022-10-29T16:53:11.538Z,65.98
2022-10-29T16:55:40.935Z,65.91
2022-10-29T16:58:19.013Z,66.17
2022-10-29T17:00:46.991Z,65.90
2022-10-29T17:03:16.339Z,66.21
2022-10-29T17:05:45.949Z,67.15
2022-10-29T17:08:13.559Z,67.50
2022-10-29T17:10:41.028Z,67.92
2022-10-29T17:13:11.210Z,67.95
2022-10-29T17:15:40.621Z,68.08
2022-10-29T17:18:08.253Z,68.06
2022-10-29T17:20:35.624Z,68.10
2022-10-29T17:23:02.952Z,68.33
2022-10-29T17:25:30.412Z,69.31
2022-10-29T17:27:58.189Z,69.89
2022-10-29T17:30:25.869Z,70.57
2022-10-29T17:32:53.217Z,71.03
2022-10-29T17:35:23.430Z,71.25
2022-10-29T17:37:50.756Z,71.48
2022-10-29T17:40:18.120Z,72.01
2022-10-29T17:42:45.586Z,72.29
2022-10-29T17:45:15.681Z,73.23
2022-10-29T17:47:42.991Z,73.64
2022-10-29T17:50:10.342Z,74.77
2022-10-29T17:52:37.693Z,75.12
2022-10-29T17:55:05.785Z,75.59
2022-10-29T17:57:33.185Z,76.98
2022-10-29T18:00:00.538Z,77.15
2022-10-29T18:02:28.003Z,76.63
2022-10-29T18:04:55.400Z,75.63
2022-10-29T18:07:25.811Z,75.86
2022-10-29T18:09:53.167Z,76.39
2022-10-29T18:12:20.492Z,76.70
2022-10-29T18:14:47.850Z,76.83
2022-10-29T18:17:15.191Z,76.69
2022-10-29T18:19:42.522Z,76.73
2022-10-29T18:22:10.104Z,76.75
2022-10-29T18:24:37.507Z,77.11
2022-10-29T18:27:04.836Z,77.50
2022-10-29T18:29:32.234Z,77.92
2022-10-29T18:31:59.655Z,78.38
2022-10-29T18:34:26.980Z,79.21
2022-10-29T18:36:54.378Z,79.56
2022-10-29T18:39:21.781Z,79.50
2022-10-29T18:41:49.154Z,79.88
2022-10-29T18:44:16.448Z,80.50
2022-10-29T18:46:43.743Z,80.71
2022-10-29T18:49:13.099Z,80.39
2022-10-29T18:51:40.656Z,81.00
2022-10-29T18:54:10.586Z,81.15
2022-10-29T18:56:38.358Z,81.60
2022-10-29T18:59:06.605Z,81.67
2022-10-29T19:01:36.807Z,82.05
2022-10-29T19:04:06.985Z,82.59
2022-10-29T19:06:36.347Z,83.05
2022-10-29T19:09:06.911Z,83.57
2022-10-29T19:11:34.817Z,83.57
2022-10-29T19:14:12.067Z,82.63
2022-10-29T19:16:39.419Z,85.38
2022-10-29T19:19:10.621Z,85.75
2022-10-29T19:21:38.878Z,86.50
2022-10-29T19:24:07.623Z,86.58
2022-10-29T19:26:36.235Z,87.25
2022-10-29T19:29:05.302Z,87.33
2022-10-29T19:31:34.155Z,87.64
2022-10-29T19:34:05.479Z,88.59
2022-10-29T19:36:34.536Z,88.43
2022-10-29T19:39:02.020Z,89.00
2022-10-29T19:41:30.564Z,89.57
2022-10-29T19:43:59.868Z,89.64
2022-10-29T19:46:27.621Z,89.77
2022-10-29T19:48:58.304Z,89.85
2022-10-29T19:51:26.146Z,90.08
2022-10-29T19:53:54.397Z,90.50
2022-10-29T19:56:21.871Z,89.93
2022-10-29T19:58:49.826Z,90.30
2022-10-29T20:01:18.615Z,90.47
2022-10-29T20:03:47.082Z,90.58
2022-10-29T20:06:15.364Z,91.33
2022-10-29T20:08:42.850Z,91.79
2022-10-29T20:11:10.488Z,91.03
2022-10-29T20:13:39.770Z,91.82
2022-10-29T20:16:13.357Z,92.28
2022-10-29T20:18:40.753Z,92.14
2022-10-29T20:21:08.551Z,92.61
2022-10-29T20:23:36.344Z,93.24
2022-10-29T20:26:04.682Z,93.83
2022-10-29T20:28:32.288Z,93.91
2022-10-29T20:31:17.996Z,93.91
2022-10-29T20:33:53.629Z,94.60
2022-10-29T20:36:22.043Z,94.88
2022-10-29T20:38:52.761Z,94.82
2022-10-29T20:41:22.350Z,95.20
2022-10-29T20:44:08.279Z,95.27
2022-10-29T20:46:40.849Z,95.09
2022-10-29T20:49:10.991Z,95.13
2022-10-29T20:51:38.285Z,94.91
2022-10-29T20:54:06.887Z,94.12
2022-10-29T20:56:34.229Z,94.16
2022-10-29T20:59:03.156Z,93.63
2022-10-29T21:01:31.033Z,93.19
2022-10-29T21:03:58.515Z,93.40
2022-10-29T21:06:26.063Z,93.97
2022-10-29T21:08:53.421Z,93.70
2022-10-29T21:11:22.507Z,93.91
2022-10-29T21:13:50.323Z,94.24
2022-10-29T21:16:17.608Z,94.48
2022-10-29T21:18:47.256Z,94.01
2022-10-29T21:21:15.042Z,93.77
2022-10-29T21:23:42.524Z,93.55
2022-10-29T21:26:15.071Z,94.18
2022-10-29T21:28:42.660Z,94.24
2022-10-29T21:31:10.327Z,94.28
2022-10-29T21:33:39.221Z,93.97
2022-10-29T21:36:07.119Z,94.67
2022-10-29T21:38:34.433Z,95.06
2022-10-29T21:41:04.852Z,95.32
2022-10-29T21:43:32.398Z,95.32
2022-10-29T21:46:00.121Z,95.30
2022-10-29T21:48:28.850Z,94.98
2022-10-29T21:51:05.278Z,94.86
2022-10-29T21:53:32.726Z,94.74
2022-10-29T21:56:02.991Z,94.86
2022-10-29T21:58:30.794Z,95.06
2022-10-29T22:01:09.524Z,94.84
2022-10-29T22:03:40.462Z,95.44
2022-10-29T22:06:11.797Z,95.20
2022-10-29T22:08:39.960Z,95.14
2022-10-29T22:11:07.845Z,95.68
2022-10-29T22:13:36.019Z,95.68
2022-10-29T22:16:04.887Z,95.52
2022-10-29T22:18:32.774Z,95.97
2022-10-29T22:21:21.635Z,96.55
2022-10-29T22:23:51.252Z,96.64
2022-10-29T22:26:21.213Z,96.75
2022-10-29T22:28:48.707Z,96.61
2022-10-29T22:31:17.762Z,96.66
2022-10-29T22:33:45.727Z,96.72
2022-10-29T22:36:18.356Z,96.64
2022-10-29T22:38:46.060Z,96.26
2022-10-29T22:41:17.886Z,96.38
2022-10-29T22:43:45.285Z,96.67
2022-10-29T22:46:14.795Z,96.26
2022-10-29T22:48:43.676Z,96.49
2022-10-29T22:51:21.698Z,96.79
2022-10-29T22:53:49.823Z,97.14
2022-10-29T22:56:20.945Z,97.49
2022-10-29T22:58:49.047Z,97.30
2022-10-29T23:01:22.013Z,97.24
2022-10-29T23:03:49.937Z,96.95
2022-10-29T23:06:22.692Z,96.45
2022-10-29T23:08:55.411Z,96.57
2022-10-29T23:11:27.513Z,96.38
2022-10-29T23:13:58.885Z,96.19
2022-10-29T23:16:28.356Z,96.17
2022-10-29T23:18:59.559Z,96.40
2022-10-29T23:21:28.194Z,96.22
2022-10-29T23:23:56.459Z,97.07
2022-10-29T23:26:25.456Z,97.42
2022-10-29T23:28:52.846Z,97.97
2022-10-29T23:31:25.558Z,97.71
2022-10-29T23:33:55.192Z,98.13
2022-10-29T23:36:24.221Z,98.72
2022-10-29T23:39:02.644Z,98.97
2022-10-29T23:41:31.120Z,98.64
2022-10-29T23:43:58.708Z,99.22
2022-10-29T23:46:26.094Z,99.70
2022-10-29T23:48:53.801Z,99.75
2022-10-29T23:51:21.388Z,99.54
2022-10-29T23:53:51.672Z,98.76
2022-10-29T23:56:22.172Z,98.36
2022-10-29T23:58:49.505Z,98.97
